Air Quality Table

TIMESTAMP NO2 SO2 PM10 PM2.5 CO TEMP HUM AIRPRES WS WD NO
2022-01-21 06:00 76.02 µg/m3 0.61 µg/m3 16.72 µg/m3 8.61 µg/m3 0.27 mg/m3 10.61 °C 77.21 % 1,019.22 mbar 2.17 m/s 192.71 Deg 8.9 µg/m3
2022-01-21 05:00 68.9 µg/m3 0.57 µg/m3 15.65 µg/m3 7.85 µg/m3 0.18 mg/m3 11.01 °C 74.87 % 1,019.36 mbar 1.89 m/s 194.2 Deg 5.37 µg/m3
2022-01-21 04:00 83.74 µg/m3 0.77 µg/m3 14.43 µg/m3 7.08 µg/m3 0.21 mg/m3 11.13 °C 73.94 % 1,019.73 mbar 1.91 m/s 197.73 Deg 29.84 µg/m3
2022-01-21 03:00 54.18 µg/m3 0.9 µg/m3 14.35 µg/m3 7.49 µg/m3 0.2 mg/m3 11.29 °C 73.97 % 1,020.24 mbar 2.05 m/s 192.19 Deg 21.85 µg/m3
2022-01-21 02:00 54.52 µg/m3 0.63 µg/m3 15 µg/m3 8.03 µg/m3 0.21 mg/m3 11.35 °C 75.45 % 1,020.42 mbar 1.97 m/s 193.95 Deg 4.61 µg/m3
2022-01-21 01:00 39.77 µg/m3 0.49 µg/m3 15.35 µg/m3 8.25 µg/m3 0.23 mg/m3 11.62 °C 76.6 % 1,020.84 mbar 2.43 m/s 196.02 Deg 0.65 µg/m3
2022-01-21 00:00 69.51 µg/m3 0.97 µg/m3 30.99 µg/m3 16.06 µg/m3 0.39 mg/m3 11 °C 80.66 % 1,021.31 mbar 1.8 m/s 195.98 Deg 34.45 µg/m3
2022-01-20 23:00 79.98 µg/m3 1.04 µg/m3 33.1 µg/m3 18.88 µg/m3 0.44 mg/m3 11.35 °C 80.43 % 1,021.60 mbar 1.25 m/s 202.52 Deg 38.33 µg/m3
2022-01-20 22:00 72.73 µg/m3 0.63 µg/m3 30.16 µg/m3 17.93 µg/m3 0.4 mg/m3 11.51 °C 75.85 % 1,021.74 mbar 1.56 m/s 199.14 Deg 10.36 µg/m3
2022-01-20 21:00 66.42 µg/m3 0.51 µg/m3 21.67 µg/m3 11.19 µg/m3 0.35 mg/m3 12.11 °C 72.87 % 1,021.68 mbar 1.8 m/s 193.59 Deg 3.99 µg/m3
2022-01-20 20:00 64.21 µg/m3 0.62 µg/m3 18.92 µg/m3 10.03 µg/m3 0.37 mg/m3 12.67 °C 71.84 % 1,021.75 mbar 2.13 m/s 201.68 Deg 10.43 µg/m3
2022-01-20 19:00 75.97 µg/m3 0.62 µg/m3 19.44 µg/m3 9.76 µg/m3 0.39 mg/m3 13.09 °C 71.05 % 1,021.68 mbar 2.28 m/s 198.72 Deg 15.99 µg/m3
2022-01-20 18:00 22.25 µg/m3 0.27 µg/m3 11.81 µg/m3 4.99 µg/m3 0.24 mg/m3 13.65 °C 66.62 % 1,021.61 mbar 3.23 m/s 213.75 Deg 2.43 µg/m3
2022-01-20 17:00 19.43 µg/m3 0.34 µg/m3 10.5 µg/m3 4.09 µg/m3 0.23 mg/m3 13.96 °C 66.02 % 1,021.62 mbar 2.32 m/s 261.88 Deg 4.45 µg/m3
2022-01-20 16:00 18.35 µg/m3 0.4 µg/m3 10.71 µg/m3 4.2 µg/m3 0.21 mg/m3 14.16 °C 63.56 % 1,021.71 mbar 2.54 m/s 259.89 Deg 5.85 µg/m3
2022-01-20 15:00 19.57 µg/m3 0.43 µg/m3 10.79 µg/m3 4.11 µg/m3 0.23 mg/m3 14.37 °C 61.4 % 1,022.10 mbar 2.12 m/s 246.68 Deg 6.78 µg/m3
2022-01-20 14:00 46.98 µg/m3 0.96 µg/m3 10.42 µg/m3 4.05 µg/m3 0.2 mg/m3 14.32 °C 62.01 % 1,022.70 mbar 3.46 m/s 240.97 Deg 45.5 µg/m3
2022-01-20 13:00 33.58 µg/m3 0.71 µg/m3 10.85 µg/m3 4.32 µg/m3 0.22 mg/m3 13.6 °C 71.11 % 1,023.45 mbar 2.78 m/s 251.53 Deg 30.41 µg/m3
2022-01-20 12:00 35.56 µg/m3 0.72 µg/m3 12.25 µg/m3 4.71 µg/m3 0.22 mg/m3 14.21 °C 69.89 % 1,024.40 mbar 2.34 m/s 251.91 Deg 11.62 µg/m3
2022-01-20 11:00 40.62 µg/m3 0.85 µg/m3 11.12 µg/m3 4.53 µg/m3 0.21 mg/m3 14.05 °C 69.18 % 1,024.77 mbar 3.51 m/s 193.69 Deg 20.23 µg/m3
2022-01-20 10:00 99.91 µg/m3 2.66 µg/m3 30.71 µg/m3 15.66 µg/m3 0.68 mg/m3 12.65 °C 82.46 % 1,024.66 mbar 0.89 m/s 189.93 Deg 163.22 µg/m3
2022-01-20 09:00 100.23 µg/m3 2.74 µg/m3 32.33 µg/m3 17.83 µg/m3 0.85 mg/m3 10.58 °C 88.69 % 1,024.60 mbar 1.93 m/s 193.55 Deg 182.48 µg/m3
2022-01-20 08:00 92.43 µg/m3 2.32 µg/m3 25.45 µg/m3 13.69 µg/m3 0.73 mg/m3 10.34 °C 90.07 % 1,024.81 mbar 1.68 m/s 200.72 Deg 153.64 µg/m3
2022-01-20 07:00 69.43 µg/m3 0.88 µg/m3 16.04 µg/m3 7.75 µg/m3 0.41 mg/m3 10.53 °C 89.86 % 1,024.83 mbar 1.33 m/s 191.17 Deg 38.33 µg/m3
2022-01-20 06:00 58.74 µg/m3 0.65 µg/m3 12.32 µg/m3 5.88 µg/m3 0.25 mg/m3 10.68 °C 89.37 % 1,024.71 mbar 1.9 m/s 196.09 Deg 15.87 µg/m3
2022-01-20 05:00 47.46 µg/m3 0.59 µg/m3 12.52 µg/m3 6.15 µg/m3 0.19 mg/m3 11.04 °C 89.77 % 1,024.87 mbar 1.89 m/s 201.7 Deg 12.35 µg/m3
2022-01-20 04:00 53.77 µg/m3 0.59 µg/m3 13.71 µg/m3 7.04 µg/m3 0.32 mg/m3 11.51 °C 90.29 % 1,025.37 mbar 1.42 m/s 208.91 Deg 17.95 µg/m3
2022-01-20 03:00 49.7 µg/m3 0.44 µg/m3 13.64 µg/m3 7.01 µg/m3 0.32 mg/m3 11.37 °C 90.08 % 1,025.85 mbar 1.38 m/s 198.78 Deg 4.05 µg/m3
2022-01-20 02:00 53.27 µg/m3 0.5 µg/m3 15.15 µg/m3 8.13 µg/m3 0.35 mg/m3 11.38 °C 89.9 % 1,026.18 mbar 1.79 m/s 201.98 Deg 14.83 µg/m3
2022-01-20 01:00 44.57 µg/m3 0.46 µg/m3 17.23 µg/m3 9.63 µg/m3 0.36 mg/m3 11.23 °C 89.17 % 1,026.52 mbar 1.74 m/s 199.47 Deg 5.95 µg/m3
2022-01-20 00:00 73.4 µg/m3 0.94 µg/m3 15.27 µg/m3 8.26 µg/m3 0.41 mg/m3 11.43 °C 88.86 % 1,026.88 mbar 1.68 m/s 203.67 Deg 53.81 µg/m3
2022-01-19 23:00 73.72 µg/m3 0.67 µg/m3 14.21 µg/m3 7.44 µg/m3 0.37 mg/m3 11.97 °C 86.43 % 1,027.24 mbar 1.09 m/s 207.33 Deg 23.97 µg/m3
2022-01-19 22:00 64.41 µg/m3 0.6 µg/m3 14 µg/m3 7.28 µg/m3 0.35 mg/m3 12.43 °C 84.62 % 1,027.43 mbar 0.65 m/s 186.81 Deg 15.44 µg/m3
2022-01-19 21:00 67.97 µg/m3 0.6 µg/m3 13.66 µg/m3 7.04 µg/m3 0.32 mg/m3 12.89 °C 83.15 % 1,027.56 mbar 0.69 m/s 196.1 Deg 14.34 µg/m3
2022-01-19 20:00 67.95 µg/m3 0.46 µg/m3 12.49 µg/m3 6.12 µg/m3 0.34 mg/m3 13.2 °C 81.14 % 1,027.50 mbar 0.67 m/s 187.59 Deg 10.95 µg/m3
2022-01-19 19:00 30.15 µg/m3 0.41 µg/m3 11.98 µg/m3 5.76 µg/m3 0.35 mg/m3 12.74 °C 85.46 % 1,027.54 mbar 0.42 m/s 208.69 Deg 5.82 µg/m3
2022-01-19 18:00 37.4 µg/m3 0.41 µg/m3 12.22 µg/m3 5.68 µg/m3 0.37 mg/m3 13.48 °C 82.12 % 1,027.36 mbar 0.62 m/s 249 Deg 7.44 µg/m3
2022-01-19 17:00 11.04 µg/m3 0.44 µg/m3 13.33 µg/m3 5.21 µg/m3 0.31 mg/m3 15.41 °C 63.29 % 1,027.04 mbar 0.57 m/s 230.12 Deg 2.97 µg/m3
2022-01-19 16:00 21.24 µg/m3 0.7 µg/m3 13.48 µg/m3 5.26 µg/m3 0.26 mg/m3 15.69 °C 60.51 % 1,027.13 mbar 0.96 m/s 242.74 Deg 7.22 µg/m3
2022-01-19 15:00 26.28 µg/m3 0.69 µg/m3 13.45 µg/m3 4.97 µg/m3 0.28 mg/m3 16.2 °C 57.66 % 1,027.40 mbar 0.9 m/s 225.53 Deg 7.73 µg/m3
2022-01-19 14:00 49.94 µg/m3 1.19 µg/m3 12.97 µg/m3 5.34 µg/m3 0.25 mg/m3 15.68 °C 52.06 % 1,027.78 mbar 1.66 m/s 185.34 Deg 24.35 µg/m3
2022-01-19 13:00 70.35 µg/m3 1.55 µg/m3 14.73 µg/m3 6.43 µg/m3 0.25 mg/m3 15.37 °C 53.24 % 1,028.65 mbar 1.59 m/s 185.33 Deg 49.23 µg/m3
2022-01-19 12:00 27.27 µg/m3 0.99 µg/m3 12.83 µg/m3 4.76 µg/m3 0.26 mg/m3 15.04 °C 57.74 % 1,029.18 mbar 0.67 m/s 202.98 Deg 8.23 µg/m3
2022-01-19 11:00 24.25 µg/m3 0.96 µg/m3 13.99 µg/m3 5.33 µg/m3 0.31 mg/m3 14.4 °C 64.44 % 1,029.46 mbar 0.4 m/s 260.13 Deg 5.78 µg/m3
2022-01-19 10:00 72.13 µg/m3 1.99 µg/m3 23.9 µg/m3 11.38 µg/m3 0.75 mg/m3 13.32 °C 75.15 % 1,029.42 mbar 0 m/s 209.95 Deg 67.54 µg/m3
2022-01-19 09:00 121.78 µg/m3 4.15 µg/m3 37.67 µg/m3 19.11 µg/m3 1.09 mg/m3 12.03 °C 81.96 % 1,028.93 mbar 0.99 m/s 204.3 Deg 270.57 µg/m3
2022-01-19 08:00 81.63 µg/m3 1.85 µg/m3 21.27 µg/m3 11.12 µg/m3 0.57 mg/m3 12.26 °C 78.86 % 1,028.63 mbar 0.63 m/s 228.62 Deg 80.98 µg/m3
2022-01-19 07:00 71.56 µg/m3 1.5 µg/m3 17.79 µg/m3 9.87 µg/m3 0.59 mg/m3 12 °C 78.77 % 1,028.18 mbar 0.36 m/s 236.93 Deg 40.05 µg/m3
2022-01-19 06:00 71.71 µg/m3 1.26 µg/m3 19.02 µg/m3 10.58 µg/m3 0.34 mg/m3 11.67 °C 77.77 % 1,027.95 mbar 0.99 m/s 205.4 Deg 38.03 µg/m3
2022-01-19 05:00 61.26 µg/m3 0.9 µg/m3 16.91 µg/m3 9.31 µg/m3 0.22 mg/m3 11.36 °C 79.02 % 1,027.91 mbar 1.72 m/s 199.47 Deg 30.12 µg/m3
2022-01-19 04:00 51.2 µg/m3 0.64 µg/m3 15.99 µg/m3 8.71 µg/m3 0.29 mg/m3 11.17 °C 78.64 % 1,028.13 mbar 1.98 m/s 201.01 Deg 16.07 µg/m3
2022-01-19 03:00 50.81 µg/m3 0.61 µg/m3 15.41 µg/m3 8.29 µg/m3 0.31 mg/m3 11.07 °C 78.96 % 1,028.27 mbar 2.29 m/s 200.89 Deg 11.69 µg/m3
2022-01-19 02:00 48.93 µg/m3 0.5 µg/m3 16.47 µg/m3 8.98 µg/m3 0.32 mg/m3 11.09 °C 79.33 % 1,028.42 mbar 2.17 m/s 202.26 Deg 4.35 µg/m3
2022-01-19 01:00 58.01 µg/m3 0.6 µg/m3 19.4 µg/m3 11.24 µg/m3 0.39 mg/m3 10.84 °C 79.23 % 1,028.62 mbar 2.23 m/s 199.29 Deg 11.38 µg/m3
2022-01-19 00:00 63.12 µg/m3 0.67 µg/m3 22.41 µg/m3 13.43 µg/m3 0.45 mg/m3 10.7 °C 79.33 % 1,028.81 mbar 2.21 m/s 202.71 Deg 13.31 µg/m3
2022-01-18 23:00 71.08 µg/m3 0.79 µg/m3 28.77 µg/m3 18.18 µg/m3 0.52 mg/m3 10.52 °C 80.49 % 1,029.17 mbar 2.03 m/s 199.69 Deg 28.85 µg/m3
2022-01-18 22:00 71.06 µg/m3 0.67 µg/m3 27.99 µg/m3 16.02 µg/m3 0.56 mg/m3 10.64 °C 80.38 % 1,028.98 mbar 2.16 m/s 202.12 Deg 26.59 µg/m3
2022-01-18 21:00 77.76 µg/m3 0.88 µg/m3 27.49 µg/m3 15.63 µg/m3 0.68 mg/m3 11.25 °C 78.3 % 1,028.95 mbar 2.11 m/s 197.23 Deg 41.85 µg/m3
2022-01-18 20:00 87.53 µg/m3 1.07 µg/m3 27.83 µg/m3 14.56 µg/m3 0.74 mg/m3 12.17 °C 75.88 % 1,028.67 mbar 1.63 m/s 201.25 Deg 53.52 µg/m3
2022-01-18 19:00 40.68 µg/m3 0.31 µg/m3 12.33 µg/m3 5.44 µg/m3 0.34 mg/m3 13.41 °C 67.86 % 1,028.19 mbar 0.85 m/s 315.49 Deg 5.35 µg/m3
2022-01-18 18:00 17.24 µg/m3 0.16 µg/m3 11.13 µg/m3 4.56 µg/m3 0.31 mg/m3 13.63 °C 65.25 % 1,027.59 mbar 1.05 m/s 319.26 Deg 2.13 µg/m3
2022-01-18 17:00 9.5 µg/m3 0.2 µg/m3 11.23 µg/m3 4.58 µg/m3 0.27 mg/m3 14.2 °C 62.54 % 1,027.14 mbar 1.62 m/s 260.24 Deg 2.2 µg/m3
2022-01-18 16:00 8.96 µg/m3 0.22 µg/m3 11.01 µg/m3 4.42 µg/m3 0.26 mg/m3 14.63 °C 58.85 % 1,026.97 mbar 1.76 m/s 336.16 Deg 2.14 µg/m3
2022-01-18 15:00 8.19 µg/m3 0.23 µg/m3 11.16 µg/m3 4.45 µg/m3 0.36 mg/m3 14.71 °C 59.42 % 1,026.80 mbar 1.68 m/s 324.12 Deg 2.48 µg/m3
2022-01-18 14:00 4.44 µg/m3 0.21 µg/m3 11.03 µg/m3 4.53 µg/m3 0.24 mg/m3 14.58 °C 59.72 % 1,026.86 mbar 1.78 m/s 338.34 Deg 1.44 µg/m3
2022-01-18 13:00 5.09 µg/m3 0.19 µg/m3 11.09 µg/m3 4.45 µg/m3 0.26 mg/m3 14.46 °C 61.64 % 1,027.26 mbar 2.15 m/s 339.84 Deg 1.81 µg/m3
2022-01-18 12:00 10.65 µg/m3 0.23 µg/m3 11.48 µg/m3 4.72 µg/m3 0.24 mg/m3 14.56 °C 62.79 % 1,027.66 mbar 1.7 m/s 320.9 Deg 3.39 µg/m3
2022-01-18 11:00 10.54 µg/m3 0.31 µg/m3 11.41 µg/m3 4.6 µg/m3 0.25 mg/m3 14.07 °C 65.92 % 1,027.63 mbar 1.88 m/s 310.27 Deg 13.46 µg/m3
2022-01-18 10:00 19.93 µg/m3 0.17 µg/m3 11.7 µg/m3 4.8 µg/m3 0.26 mg/m3 13.55 °C 68.84 % 1,026.92 mbar 1.74 m/s 290.79 Deg 1.91 µg/m3
2022-01-18 09:00 44.57 µg/m3 0.24 µg/m3 14.02 µg/m3 5.72 µg/m3 0.34 mg/m3 12.99 °C 72.52 % 1,026.26 mbar 1.6 m/s 258.96 Deg 5.1 µg/m3
2022-01-18 08:00 24.92 µg/m3 0.2 µg/m3 11.45 µg/m3 4.72 µg/m3 0.27 mg/m3 13.13 °C 71.17 % 1,025.69 mbar 1.79 m/s 285.8 Deg 2.83 µg/m3
2022-01-18 07:00 10.19 µg/m3 0.15 µg/m3 10.38 µg/m3 4.35 µg/m3 0.28 mg/m3 13.18 °C 71.32 % 1,025.18 mbar 1.96 m/s 313.41 Deg 2.75 µg/m3
2022-01-18 06:00 3.99 µg/m3 0.11 µg/m3 9.58 µg/m3 3.81 µg/m3 0.24 mg/m3 12.95 °C 71.67 % 1,024.59 mbar 2.02 m/s 317.57 Deg 0.89 µg/m3
2022-01-18 05:00 3.41 µg/m3 0.09 µg/m3 9.93 µg/m3 4.14 µg/m3 0.17 mg/m3 12.11 °C 75.35 % 1,024.29 mbar 1.8 m/s 261.42 Deg -0.13 µg/m3
2022-01-18 04:00 1.91 µg/m3 0.13 µg/m3 9.86 µg/m3 4.09 µg/m3 0.23 mg/m3 12.32 °C 74.31 % 1,024.38 mbar 2.1 m/s 250.09 Deg -0.19 µg/m3
2022-01-18 03:00 10.4 µg/m3 0.15 µg/m3 10.27 µg/m3 4.39 µg/m3 0.25 mg/m3 12.34 °C 77 % 1,024.34 mbar 2.21 m/s 225.58 Deg 0.61 µg/m3
2022-01-18 02:00 2.59 µg/m3 0.12 µg/m3 10.57 µg/m3 4.53 µg/m3 0.25 mg/m3 12.82 °C 75.49 % 1,024.32 mbar 1.9 m/s 260.73 Deg 0.06 µg/m3
2022-01-18 01:00 0.91 µg/m3 0.15 µg/m3 10.14 µg/m3 4.29 µg/m3 0.24 mg/m3 12.96 °C 77.16 % 1,024.23 mbar 2.52 m/s 253.23 Deg 0.02 µg/m3
2022-01-18 00:00 5.12 µg/m3 0.15 µg/m3 10.16 µg/m3 4.32 µg/m3 0.26 mg/m3 13.11 °C 79.64 % 1,024.21 mbar 2.5 m/s 251.46 Deg 0.08 µg/m3
2022-01-17 23:00 12.11 µg/m3 0.17 µg/m3 10.21 µg/m3 4.31 µg/m3 0.26 mg/m3 13.09 °C 77.48 % 1,024.21 mbar 2.09 m/s 233.61 Deg 1.4 µg/m3
2022-01-17 22:00 4.42 µg/m3 0.15 µg/m3 9.98 µg/m3 4.12 µg/m3 0.25 mg/m3 13.11 °C 75.11 % 1,024.18 mbar 2.97 m/s 260.54 Deg 0.23 µg/m3
2022-01-17 21:00 5.08 µg/m3 0.15 µg/m3 10.12 µg/m3 4.17 µg/m3 0.25 mg/m3 13.42 °C 75.05 % 1,024.12 mbar 2.96 m/s 264.78 Deg 0.05 µg/m3
2022-01-17 20:00 8.65 µg/m3 0.17 µg/m3 10.26 µg/m3 4.26 µg/m3 0.26 mg/m3 13.36 °C 72.69 % 1,023.66 mbar 3.15 m/s 264.52 Deg 0.12 µg/m3
2022-01-17 19:00 13.37 µg/m3 0.21 µg/m3 11.29 µg/m3 4.92 µg/m3 0.28 mg/m3 13.4 °C 72.48 % 1,023.47 mbar 2.87 m/s 261.12 Deg 0.84 µg/m3
2022-01-17 18:00 14.98 µg/m3 0.23 µg/m3 10.95 µg/m3 4.58 µg/m3 0.27 mg/m3 13.6 °C 70.09 % 1,023.22 mbar 3.74 m/s 268.23 Deg 2.36 µg/m3
2022-01-17 17:00 13.8 µg/m3 0.26 µg/m3 11.18 µg/m3 4.67 µg/m3 0.26 mg/m3 13.96 °C 67.82 % 1,022.96 mbar 4.17 m/s 262.25 Deg 1.35 µg/m3
2022-01-17 16:00 9.55 µg/m3 0.21 µg/m3 10.45 µg/m3 4.16 µg/m3 0.25 mg/m3 14.41 °C 67.22 % 1,022.90 mbar 5.67 m/s 262.01 Deg 1.22 µg/m3
2022-01-17 15:00 8.58 µg/m3 0.2 µg/m3 10.49 µg/m3 4.14 µg/m3 0.26 mg/m3 14.6 °C 68.25 % 1,022.80 mbar 4.93 m/s 272.53 Deg 1.8 µg/m3
2022-01-17 14:00 8.57 µg/m3 0.18 µg/m3 10.07 µg/m3 3.8 µg/m3 0.26 mg/m3 14.68 °C 67.44 % 1,023.29 mbar 5.08 m/s 266.43 Deg 1.87 µg/m3
2022-01-17 13:00 8.6 µg/m3 0.25 µg/m3 9.79 µg/m3 3.66 µg/m3 0.24 mg/m3 14.52 °C 67.49 % 1,024.02 mbar 4.83 m/s 265.77 Deg 1.85 µg/m3
2022-01-17 12:00 13.24 µg/m3 0.35 µg/m3 10.23 µg/m3 3.71 µg/m3 0.23 mg/m3 14.31 °C 67.94 % 1,024.50 mbar 4.41 m/s 264.13 Deg 4.79 µg/m3
2022-01-17 11:00 15.74 µg/m3 0.29 µg/m3 10.46 µg/m3 4.08 µg/m3 0.25 mg/m3 13.85 °C 72.11 % 1,025.43 mbar 3.42 m/s 268.71 Deg 3.8 µg/m3
2022-01-17 10:00 38.57 µg/m3 0.43 µg/m3 13.63 µg/m3 5.9 µg/m3 0.35 mg/m3 13.32 °C 77.29 % 1,025.11 mbar 1.82 m/s 261.32 Deg 8.93 µg/m3
2022-01-17 09:00 85.11 µg/m3 0.98 µg/m3 17.49 µg/m3 8.38 µg/m3 0.58 mg/m3 12.14 °C 81.98 % 1,024.83 mbar 2.06 m/s 199.08 Deg 58.63 µg/m3
2022-01-17 08:00 82.23 µg/m3 0.66 µg/m3 12.95 µg/m3 6.11 µg/m3 0.5 mg/m3 11.78 °C 83.3 % 1,024.76 mbar 2.63 m/s 200.28 Deg 33.93 µg/m3
2022-01-17 07:00 66.18 µg/m3 0.57 µg/m3 11.95 µg/m3 5.65 µg/m3 0.36 mg/m3 11.91 °C 83.28 % 1,024.55 mbar 2.64 m/s 206.44 Deg 22.36 µg/m3
2022-01-17 06:00 50.58 µg/m3 0 µg/m3 15.62 µg/m3 8.52 µg/m3 0 mg/m3 11.4 °C 87.55 % 1,024.31 mbar 1.74 m/s 198.19 Deg 16.35 µg/m3
2022-01-17 05:00 56.77 µg/m3 0 µg/m3 21.29 µg/m3 12.9 µg/m3 0 mg/m3 10.53 °C 92.3 % 1,024.06 mbar 2.02 m/s 195.12 Deg 31.18 µg/m3
2022-01-17 04:00 51.26 µg/m3 0 µg/m3 14.06 µg/m3 7.36 µg/m3 0 mg/m3 10.95 °C 90.64 % 1,024.19 mbar 1.82 m/s 193.54 Deg 18.48 µg/m3
2022-01-17 03:00 56.18 µg/m3 0 µg/m3 12.78 µg/m3 6.31 µg/m3 0.34 mg/m3 11.23 °C 89.99 % 1,024.47 mbar 1.67 m/s 193.2 Deg 15.51 µg/m3
2022-01-17 02:00 50.57 µg/m3 0 µg/m3 13.37 µg/m3 6.77 µg/m3 0 mg/m3 11.5 °C 88.81 % 1,024.45 mbar 1.45 m/s 193.68 Deg 22.58 µg/m3
2022-01-17 01:00 55.07 µg/m3 0 µg/m3 16.47 µg/m3 9.14 µg/m3 0 mg/m3 11.06 °C 91.08 % 1,024.55 mbar 1.73 m/s 192.35 Deg 25.38 µg/m3
2022-01-17 00:00 56.47 µg/m3 0 µg/m3 21.13 µg/m3 12.73 µg/m3 0 mg/m3 10.47 °C 92.53 % 1,024.73 mbar 2.26 m/s 198.19 Deg 37.1 µg/m3
2022-01-16 23:00 63.36 µg/m3 1.24 µg/m3 23.65 µg/m3 14.55 µg/m3 0.64 mg/m3 10.88 °C 92.21 % 1,025.00 mbar 2.01 m/s 199.13 Deg 55.46 µg/m3
2022-01-16 22:00 58.95 µg/m3 0 µg/m3 23.86 µg/m3 14.43 µg/m3 0 mg/m3 11.03 °C 91.16 % 1,024.99 mbar 1.78 m/s 197.7 Deg 27.74 µg/m3
2022-01-16 21:00 62.11 µg/m3 0 µg/m3 23.94 µg/m3 14.39 µg/m3 0 mg/m3 11.22 °C 89.71 % 1,024.74 mbar 2.18 m/s 201.71 Deg 36.47 µg/m3
2022-01-16 20:00 73.27 µg/m3 0.84 µg/m3 23.42 µg/m3 13.96 µg/m3 0.66 mg/m3 12.21 °C 87.19 % 1,024.28 mbar 1.97 m/s 197.05 Deg 46.43 µg/m3
2022-01-16 19:00 80.85 µg/m3 0.83 µg/m3 20.75 µg/m3 11.62 µg/m3 0.67 mg/m3 13.4 °C 83.21 % 1,023.92 mbar 1.65 m/s 207.65 Deg 24.87 µg/m3
2022-01-16 18:00 40.24 µg/m3 0.65 µg/m3 15.23 µg/m3 7.59 µg/m3 0.41 mg/m3 14.24 °C 78.81 % 1,023.31 mbar 0.59 m/s 230.24 Deg 4.42 µg/m3
2022-01-16 17:00 13.16 µg/m3 0.7 µg/m3 13.9 µg/m3 6.44 µg/m3 0.35 mg/m3 14.91 °C 76.42 % 1,022.95 mbar 0.5 m/s 221.88 Deg 0.68 µg/m3
2022-01-16 16:00 17 µg/m3 1.02 µg/m3 14.21 µg/m3 6.6 µg/m3 0.35 mg/m3 15.52 °C 73.03 % 1,022.87 mbar 0.62 m/s 111.43 Deg 2.22 µg/m3
2022-01-16 15:00 14.68 µg/m3 1.15 µg/m3 14.67 µg/m3 6.88 µg/m3 0.38 mg/m3 15.33 °C 71.78 % 1,022.82 mbar 0.73 m/s 107.39 Deg 3.79 µg/m3
2022-01-16 14:00 14.36 µg/m3 1.21 µg/m3 13.26 µg/m3 6.28 µg/m3 0.33 mg/m3 14.99 °C 72.08 % 1,022.90 mbar 0.77 m/s 125.75 Deg 2.76 µg/m3
2022-01-16 13:00 20.3 µg/m3 1.1 µg/m3 13.74 µg/m3 6.46 µg/m3 0.35 mg/m3 14.55 °C 74.21 % 1,023.23 mbar 0.85 m/s 37.53 Deg 4.14 µg/m3
2022-01-16 12:00 30.89 µg/m3 0.94 µg/m3 15.5 µg/m3 6.92 µg/m3 0.4 mg/m3 14.67 °C 74.61 % 1,023.47 mbar 0.59 m/s 141.66 Deg 7 µg/m3
2022-01-16 11:00 57.57 µg/m3 1 µg/m3 14.72 µg/m3 7.59 µg/m3 0.43 mg/m3 13.44 °C 75.07 % 1,023.65 mbar 0.39 m/s 179.9 Deg 36.99 µg/m3
2022-01-16 10:00 68.58 µg/m3 1.25 µg/m3 18.09 µg/m3 9.67 µg/m3 0.58 mg/m3 11.09 °C 82.52 % 1,023.31 mbar 0.87 m/s 182.49 Deg 71.58 µg/m3
2022-01-16 09:00 56.59 µg/m3 1.26 µg/m3 18.43 µg/m3 10.02 µg/m3 0.54 mg/m3 8.64 °C 90.41 % 1,022.71 mbar 2.22 m/s 196.03 Deg 72.16 µg/m3
2022-01-16 08:00 58.86 µg/m3 1.6 µg/m3 16.57 µg/m3 9.06 µg/m3 0.45 mg/m3 7.89 °C 92.27 % 1,022.26 mbar 2.38 m/s 201.34 Deg 112.39 µg/m3
2022-01-16 07:00 48.57 µg/m3 0.86 µg/m3 14.19 µg/m3 7.38 µg/m3 0.38 mg/m3 8.13 °C 92.31 % 1,021.56 mbar 2.27 m/s 203.94 Deg 45.12 µg/m3
2022-01-16 06:00 44.34 µg/m3 0.53 µg/m3 13.64 µg/m3 7.02 µg/m3 0.35 mg/m3 8.38 °C 91.28 % 1,020.82 mbar 2.13 m/s 198.76 Deg 17.05 µg/m3
2022-01-16 05:00 44.64 µg/m3 0.51 µg/m3 13.23 µg/m3 6.68 µg/m3 0.23 mg/m3 8.25 °C 91.26 % 1,020.81 mbar 2.58 m/s 204.28 Deg 19.03 µg/m3
2022-01-16 04:00 49.36 µg/m3 0.62 µg/m3 14.08 µg/m3 7.31 µg/m3 0.37 mg/m3 8.42 °C 90.4 % 1,021.21 mbar 2.39 m/s 202.98 Deg 28.12 µg/m3
2022-01-16 03:00 48.17 µg/m3 0.52 µg/m3 14.86 µg/m3 7.87 µg/m3 0.39 mg/m3 8.53 °C 89.18 % 1,021.11 mbar 2.38 m/s 199.91 Deg 23.57 µg/m3
2022-01-16 02:00 54.86 µg/m3 0.72 µg/m3 17.72 µg/m3 9.99 µg/m3 0.51 mg/m3 8.61 °C 89.04 % 1,020.46 mbar 2.41 m/s 199.05 Deg 38.06 µg/m3
2022-01-16 01:00 61.39 µg/m3 0.99 µg/m3 21.67 µg/m3 12.94 µg/m3 0.58 mg/m3 9 °C 87.97 % 1,020.81 mbar 2.18 m/s 203.41 Deg 55.09 µg/m3
2022-01-16 00:00 64.09 µg/m3 0.93 µg/m3 25.14 µg/m3 15.41 µg/m3 0.7 mg/m3 9.35 °C 87.05 % 1,020.51 mbar 1.86 m/s 202.17 Deg 46.99 µg/m3
2022-01-15 23:00 68.88 µg/m3 0.9 µg/m3 27.27 µg/m3 17.06 µg/m3 0.63 mg/m3 9.46 °C 85.91 % 1,020.06 mbar 1.97 m/s 201.28 Deg 41.13 µg/m3
2022-01-15 22:00 70.48 µg/m3 0.84 µg/m3 27.84 µg/m3 17.29 µg/m3 0.7 mg/m3 9.87 °C 85.32 % 1,020.65 mbar 1.72 m/s 197.63 Deg 38.64 µg/m3
2022-01-15 21:00 77.38 µg/m3 0.99 µg/m3 25.1 µg/m3 14.87 µg/m3 0.74 mg/m3 10.46 °C 82.52 % 1,020.18 mbar 2.02 m/s 199.63 Deg 46.4 µg/m3
2022-01-15 20:00 82.59 µg/m3 0.64 µg/m3 22.44 µg/m3 12.59 µg/m3 0.68 mg/m3 11.4 °C 77.66 % 1,020.00 mbar 1.73 m/s 196.7 Deg 20.58 µg/m3
2022-01-15 19:00 66.79 µg/m3 0.51 µg/m3 20.19 µg/m3 10.78 µg/m3 0.6 mg/m3 12.24 °C 73.18 % 1,019.75 mbar 1.86 m/s 211.4 Deg 14.45 µg/m3
2022-01-15 18:00 25.64 µg/m3 0.32 µg/m3 11.71 µg/m3 5 µg/m3 0.36 mg/m3 13.07 °C 67.47 % 1,019.33 mbar 1.2 m/s 276.61 Deg 0.86 µg/m3
2022-01-15 17:00 17.39 µg/m3 0.43 µg/m3 10.84 µg/m3 4.38 µg/m3 0.33 mg/m3 13.82 °C 64.57 % 1,019.33 mbar 1.13 m/s 329.41 Deg 3.13 µg/m3
2022-01-15 16:00 11.7 µg/m3 0.38 µg/m3 10.38 µg/m3 4.2 µg/m3 0.31 mg/m3 13.83 °C 64.08 % 1,019.09 mbar 1.76 m/s 344.55 Deg 2.89 µg/m3
2022-01-15 15:00 5.73 µg/m3 0.38 µg/m3 11.8 µg/m3 4.27 µg/m3 0.3 mg/m3 13.93 °C 63.07 % 1,019.01 mbar 1.83 m/s 332.13 Deg 1.16 µg/m3
2022-01-15 14:00 6.98 µg/m3 0.44 µg/m3 10.41 µg/m3 4.08 µg/m3 0.29 mg/m3 13.74 °C 60.83 % 1,019.22 mbar 2.01 m/s 322.38 Deg 1.64 µg/m3
2022-01-15 13:00 10.41 µg/m3 0.56 µg/m3 10.66 µg/m3 4.28 µg/m3 0.28 mg/m3 13.52 °C 61.84 % 1,020.01 mbar 2.09 m/s 317.71 Deg 3.3 µg/m3
2022-01-15 12:00 12.75 µg/m3 0.56 µg/m3 10.9 µg/m3 4.42 µg/m3 0.3 mg/m3 13.2 °C 65.61 % 1,020.86 mbar 2.03 m/s 295.03 Deg 5.65 µg/m3
2022-01-15 11:00 10.01 µg/m3 0.44 µg/m3 10.29 µg/m3 4.22 µg/m3 0.29 mg/m3 12.63 °C 66.38 % 1,021.25 mbar 1.94 m/s 302.03 Deg 2.34 µg/m3
2022-01-15 10:00 53.37 µg/m3 0.9 µg/m3 15.74 µg/m3 6.84 µg/m3 0.43 mg/m3 11.49 °C 72.33 % 1,021.17 mbar 1.8 m/s 231.41 Deg 31.88 µg/m3
2022-01-15 09:00 105.09 µg/m3 2.53 µg/m3 24.92 µg/m3 12.58 µg/m3 0.68 mg/m3 9.17 °C 81.63 % 1,021.05 mbar 2.18 m/s 197.8 Deg 162.93 µg/m3
2022-01-15 08:00 97.81 µg/m3 2.67 µg/m3 22.49 µg/m3 11.64 µg/m3 0.63 mg/m3 7.87 °C 85.27 % 1,021.03 mbar 2.3 m/s 197.62 Deg 181.08 µg/m3
2022-01-15 07:00 78.86 µg/m3 1.73 µg/m3 17.77 µg/m3 9.5 µg/m3 0.42 mg/m3 7.48 °C 85.51 % 1,020.79 mbar 2.72 m/s 200.62 Deg 113.02 µg/m3
2022-01-15 06:00 58.9 µg/m3 0.66 µg/m3 15.31 µg/m3 8.01 µg/m3 0.31 mg/m3 7.43 °C 85.1 % 1,020.57 mbar 2.68 m/s 205.48 Deg 31.32 µg/m3
2022-01-15 05:00 62.72 µg/m3 0.82 µg/m3 15.89 µg/m3 7.8 µg/m3 0.19 mg/m3 7.57 °C 82.22 % 1,020.93 mbar 2.55 m/s 203.82 Deg 42.87 µg/m3
2022-01-15 04:00 66.07 µg/m3 0.77 µg/m3 15.47 µg/m3 7.61 µg/m3 0.23 mg/m3 7.57 °C 80.39 % 1,021.51 mbar 2.62 m/s 205.85 Deg 38.8 µg/m3
2022-01-15 03:00 65.17 µg/m3 0.7 µg/m3 16.21 µg/m3 8.22 µg/m3 0.3 mg/m3 7.78 °C 78.92 % 1,022.12 mbar 2.79 m/s 200.61 Deg 32.92 µg/m3
2022-01-15 02:00 75.23 µg/m3 0.89 µg/m3 17.15 µg/m3 8.96 µg/m3 0.34 mg/m3 8.31 °C 76.11 % 1,022.45 mbar 2.44 m/s 199.61 Deg 48.91 µg/m3
2022-01-15 01:00 66.56 µg/m3 0.49 µg/m3 15.39 µg/m3 7.76 µg/m3 0.34 mg/m3 9.04 °C 71.37 % 1,022.68 mbar 1.85 m/s 198.14 Deg 13.79 µg/m3
2022-01-15 00:00 59.62 µg/m3 0.39 µg/m3 17.63 µg/m3 9.72 µg/m3 0.36 mg/m3 9.5 °C 69.66 % 1,023.39 mbar 2.52 m/s 202.32 Deg 4.26 µg/m3
2022-01-14 23:00 50.88 µg/m3 0.38 µg/m3 15.97 µg/m3 8.41 µg/m3 0.36 mg/m3 10.19 °C 66.82 % 1,023.97 mbar 2.13 m/s 202.15 Deg 2.33 µg/m3
2022-01-14 22:00 70.52 µg/m3 0.67 µg/m3 18.84 µg/m3 10.13 µg/m3 0.49 mg/m3 10.33 °C 68.86 % 1,024.20 mbar 2.1 m/s 204.22 Deg 18.29 µg/m3
2022-01-14 21:00 34.15 µg/m3 0.52 µg/m3 16.24 µg/m3 7.8 µg/m3 0.37 mg/m3 11.41 °C 59.24 % 1,024.27 mbar 1.49 m/s 305.26 Deg 19.88 µg/m3
2022-01-14 20:00 14.19 µg/m3 0.28 µg/m3 11.68 µg/m3 4.74 µg/m3 0.23 mg/m3 12.06 °C 57.52 % 1,024.25 mbar 1.08 m/s 246.94 Deg 2.28 µg/m3
2022-01-14 19:00 16.77 µg/m3 0.29 µg/m3 12.09 µg/m3 4.69 µg/m3 0.25 mg/m3 12.24 °C 59.05 % 1,024.12 mbar 0.99 m/s 197.71 Deg 4.63 µg/m3
2022-01-14 18:00 26.68 µg/m3 0.31 µg/m3 11.32 µg/m3 4.65 µg/m3 0.24 mg/m3 12.48 °C 61.44 % 1,023.90 mbar 1.66 m/s 168.11 Deg 2.29 µg/m3
2022-01-14 17:00 41.63 µg/m3 0.43 µg/m3 11.87 µg/m3 5.05 µg/m3 0.25 mg/m3 12.71 °C 63.66 % 1,023.78 mbar 2.14 m/s 187.63 Deg 16.44 µg/m3
2022-01-14 16:00 9.54 µg/m3 0.23 µg/m3 13.05 µg/m3 5.01 µg/m3 0.24 mg/m3 13.09 °C 62.2 % 1,023.95 mbar 2.15 m/s 178.88 Deg 1.71 µg/m3
2022-01-14 15:00 19.02 µg/m3 0.32 µg/m3 12.22 µg/m3 4.88 µg/m3 0.23 mg/m3 13.1 °C 58.67 % 1,023.97 mbar 1.94 m/s 270.47 Deg 4.04 µg/m3
2022-01-14 14:00 15.9 µg/m3 0.3 µg/m3 12.89 µg/m3 5.06 µg/m3 0.26 mg/m3 12.98 °C 60.67 % 1,024.25 mbar 2.38 m/s 264.7 Deg 3.53 µg/m3
2022-01-14 13:00 10.86 µg/m3 0.26 µg/m3 13.92 µg/m3 5.62 µg/m3 0.26 mg/m3 12.89 °C 60.3 % 1,024.86 mbar 2.13 m/s 282.58 Deg 2.09 µg/m3
2022-01-14 12:00 10.07 µg/m3 0.24 µg/m3 12.89 µg/m3 5.36 µg/m3 0.25 mg/m3 12.78 °C 60.12 % 1,025.35 mbar 2 m/s 203.39 Deg 1.68 µg/m3
2022-01-14 11:00 7.29 µg/m3 0.28 µg/m3 18.93 µg/m3 7.53 µg/m3 0.26 mg/m3 12.77 °C 63.14 % 1,025.52 mbar 1.73 m/s 299.72 Deg 1.68 µg/m3
2022-01-14 10:00 8.3 µg/m3 0.25 µg/m3 14.94 µg/m3 6.3 µg/m3 0.27 mg/m3 12.59 °C 63.98 % 1,025.28 mbar 1.59 m/s 206.74 Deg 1.43 µg/m3
2022-01-14 09:00 13.16 µg/m3 0.3 µg/m3 14.23 µg/m3 6.2 µg/m3 0.24 mg/m3 12.61 °C 64 % 1,025.00 mbar 1.72 m/s 282.63 Deg 5.52 µg/m3
2022-01-14 08:00 11.75 µg/m3 0.25 µg/m3 13.44 µg/m3 5.97 µg/m3 0.25 mg/m3 12.41 °C 64.96 % 1,024.85 mbar 1.96 m/s 247.83 Deg 1.47 µg/m3

It is to be noted that the data is provisional and subject to quality assurance procedures. For validated data kindly refer your request to contact.air@era.org.mt